.
WxDataArchive / Data Records for 2012-01-11
2012-01-10 January 2012 2012-01-12

Data Records for Wednesday, 11 January 2012

Time	Temp	Chill	HIndex	Humid	Dewpt	 Wind 	HiWind	WindDir	Rain 	Barom 
-----	----	-----	------	-----	-----	------	------	-------	-----	----- 
00:00	27.9	27.9	27.9	91	25.6	0	0	---	0.00	29.892 
00:05	27.9	27.9	27.9	91	25.6	0	0	---	0.00	29.892 
00:10	27.9	27.9	27.9	91	25.6	0	0	---	0.00	29.892 
00:15	27.9	27.9	27.9	91	25.6	0	0	---	0.00	29.885 
00:20	27.8	27.8	27.8	91	25.5	0	0	---	0.00	29.885 
00:25	27.9	27.9	27.9	91	25.6	0	0	---	0.00	29.885 
00:30	27.9	27.9	27.9	91	25.6	0	0	---	0.00	29.875 
00:35	27.9	27.9	27.9	91	25.6	0	0	---	0.00	29.875 
00:40	27.8	27.8	27.8	91	25.5	0	0	---	0.00	29.875 
00:45	27.6	27.6	27.6	91	25.3	0	0	---	0.00	29.871 
00:50	27.6	27.6	27.6	91	25.3	0	0	---	0.00	29.871 
00:55	27.6	27.6	27.6	92	25.6	0	0	---	0.00	29.871 
01:00	27.6	27.6	27.6	92	25.6	0	0	---	0.00	29.861 
01:05	27.6	27.6	27.6	92	25.6	0	0	---	0.00	29.861 
01:10	27.8	27.8	27.8	92	25.8	0	0	---	0.00	29.861 
01:15	27.6	27.6	27.6	92	25.6	0	0	---	0.00	29.856 
01:20	27.6	27.6	27.6	92	25.6	0	0	---	0.00	29.856 
01:25	27.5	27.5	27.5	92	25.5	0	0	---	0.00	29.856 
01:30	27.5	27.5	27.5	92	25.5	0	0	---	0.00	29.848 
01:35	27.3	27.3	27.3	92	25.3	0	0	---	0.00	29.848 
01:40	27.2	27.2	27.2	92	25.2	0	0	---	0.00	29.848 
01:45	27.2	27.2	27.2	92	25.2	0	0	---	0.00	29.842 
01:50	27.0	27.0	27.0	92	25.0	0	0	---	0.00	29.842 
01:55	27.0	27.0	27.0	92	25.0	0	0	---	0.00	29.842 
02:00	27.0	27.0	27.0	92	25.0	0	0	---	0.00	29.842 
02:05	27.0	27.0	27.0	92	25.0	0	0	---	0.00	29.842 
02:10	27.0	27.0	27.0	92	25.0	0	0	---	0.00	29.842 
02:15	27.2	27.2	27.2	92	25.2	0	0	---	0.00	29.841 
02:20	27.2	27.2	27.2	92	25.2	0	0	---	0.00	29.841 
02:25	27.2	27.2	27.2	92	25.2	0	0	---	0.00	29.841 
02:30	27.0	27.0	27.0	92	25.0	0	0	---	0.00	29.840 
02:35	27.0	27.0	27.0	92	25.0	0	0	---	0.00	29.840 
02:40	26.9	26.9	26.9	92	24.9	0	0	---	0.00	29.840 
02:45	26.9	26.9	26.9	92	24.9	0	0	---	0.00	29.833 
02:50	26.7	26.7	26.7	92	24.7	0	0	---	0.00	29.833 
02:55	26.7	26.7	26.7	92	24.7	0	0	---	0.00	29.833 
03:00	26.7	26.7	26.7	92	24.7	0	0	---	0.00	29.831 
03:05	26.6	26.6	26.6	92	24.6	0	0	---	0.00	29.831 
03:10	26.4	26.4	26.4	92	24.4	0	0	---	0.00	29.831 
03:15	26.4	26.4	26.4	92	24.4	0	0	---	0.00	29.827 
03:20	26.3	26.3	26.3	92	24.3	0	0	---	0.00	29.827 
03:25	26.3	26.3	26.3	92	24.3	0	0	---	0.00	29.827 
03:30	26.1	26.1	26.1	92	24.1	0	0	---	0.00	29.823 
03:35	26.1	26.1	26.1	92	24.1	0	0	---	0.00	29.823 
03:40	26.1	26.1	26.1	92	24.1	0	0	---	0.00	29.823 
03:45	26.1	26.1	26.1	92	24.1	0	0	---	0.00	29.813 
03:50	26.0	26.0	26.0	92	24.0	0	0	---	0.00	29.813 
03:55	26.0	26.0	26.0	92	24.0	0	0	---	0.00	29.813 
04:00	26.0	26.0	26.0	92	24.0	0	0	---	0.00	29.809 
04:05	26.0	26.0	26.0	92	24.0	0	0	---	0.00	29.809 
04:10	25.8	25.8	25.8	92	23.8	0	0	---	0.00	29.809 
04:15	25.8	25.8	25.8	92	23.8	0	0	---	0.00	29.807 
04:20	25.7	25.7	25.7	92	23.7	0	0	---	0.00	29.807 
04:25	25.7	25.7	25.7	92	23.7	0	0	---	0.00	29.807 
04:30	25.7	25.7	25.7	92	23.7	0	0	---	0.00	29.796 
04:35	25.7	25.7	25.7	92	23.7	0	0	---	0.00	29.796 
04:40	25.8	25.8	25.8	92	23.8	0	0	---	0.00	29.796 
04:45	25.8	25.8	25.8	92	23.8	0	0	---	0.00	29.789 
04:50	25.8	25.8	25.8	92	23.8	0	0	---	0.00	29.789 
04:55	25.8	25.8	25.8	92	23.8	0	0	---	0.00	29.789 
05:00	25.8	25.8	25.8	92	23.8	0	0	---	0.00	29.779 
05:05	25.8	25.8	25.8	92	23.8	0	0	---	0.00	29.779 
05:10	25.8	25.8	25.8	92	23.8	0	0	---	0.00	29.779 
05:15	25.8	25.8	25.8	92	23.8	0	0	---	0.00	29.782 
05:20	25.8	25.8	25.8	92	23.8	0	0	---	0.00	29.782 
05:25	25.7	25.7	25.7	92	23.7	0	0	---	0.00	29.782 
05:30	25.6	25.6	25.6	92	23.6	0	0	---	0.00	29.770 
05:35	25.4	25.4	25.4	92	23.4	0	0	---	0.00	29.770 
05:40	25.4	25.4	25.4	92	23.4	0	0	---	0.00	29.770 
05:45	25.4	25.4	25.4	92	23.4	0	0	---	0.00	29.766 
05:50	25.6	25.6	25.6	92	23.6	0	0	---	0.00	29.766 
05:55	25.7	25.7	25.7	93	24.0	0	0	---	0.00	29.766 
06:00	25.7	25.7	25.7	93	24.0	0	0	---	0.00	29.757 
06:05	25.7	25.7	25.7	93	24.0	0	0	---	0.00	29.757 
06:10	25.7	25.7	25.7	92	23.7	0	0	---	0.00	29.757 
06:15	25.7	25.7	25.7	93	24.0	0	0	---	0.00	29.755 
06:20	25.7	25.7	25.7	93	24.0	0	0	---	0.00	29.755 
06:25	25.7	25.7	25.7	93	24.0	0	0	---	0.00	29.755 
06:30	25.7	25.7	25.7	93	24.0	0	0	---	0.00	29.750 
06:35	25.7	25.7	25.7	93	24.0	0	0	---	0.00	29.750 
06:40	25.7	25.7	25.7	93	24.0	0	0	---	0.00	29.750 
06:45	25.7	25.7	25.7	93	24.0	0	0	---	0.00	29.749 
06:50	25.8	25.8	25.8	93	24.1	0	0	---	0.00	29.749 
06:55	26.4	26.4	26.4	94	24.9	0	1	180	0.00	29.749 
07:00	27.2	27.2	27.2	94	25.7	0	1	---	0.00	29.752 
07:05	27.8	27.8	27.8	94	26.3	0	1	180	0.00	29.752 
07:10	28.1	28.1	28.1	94	26.6	0	1	180	0.00	29.752 
07:15	28.4	28.4	28.4	93	26.6	0	1	180	0.00	29.750 
07:20	28.4	28.4	28.4	93	26.6	0	1	180	0.00	29.750 
07:25	28.5	28.5	28.5	93	26.7	0	0	---	0.00	29.750 
07:30	28.5	28.5	28.5	93	26.7	0	1	180	0.00	29.750 
07:35	28.7	28.7	28.7	93	26.9	0	0	---	0.00	29.750 
07:40	28.8	28.8	28.8	93	27.0	0	2	45	0.00	29.750 
07:45	29.0	29.0	29.0	92	27.0	0	1	45	0.00	29.749 
07:50	29.1	29.1	29.1	92	27.1	1	3	45	0.00	29.749 
07:55	29.4	29.4	29.4	92	27.4	1	3	45	0.00	29.749 
08:00	29.5	29.5	29.5	91	27.2	1	3	45	0.00	29.741 
08:05	29.5	29.5	29.5	91	27.2	0	1	90	0.00	29.741 
08:10	29.5	29.5	29.5	91	27.2	0	1	90	0.00	29.741 
08:15	29.5	29.5	29.5	91	27.2	0	0	---	0.00	29.745 
08:20	29.5	29.5	29.5	91	27.2	0	1	90	0.00	29.745 
08:25	29.5	29.5	29.5	91	27.2	0	1	90	0.00	29.745 
08:30	29.5	29.5	29.5	90	26.9	0	3	90	0.00	29.752 
08:35	29.7	29.7	29.7	90	27.1	0	2	90	0.00	29.752 
08:40	29.8	29.8	29.8	90	27.2	0	2	90	0.00	29.752 
08:45	30.0	30.0	30.0	90	27.4	0	1	90	0.00	29.756 
08:50	30.1	30.1	30.1	90	27.5	0	1	90	0.00	29.756 
08:55	30.3	30.3	30.3	90	27.7	0	2	90	0.00	29.756 
09:00	30.6	30.6	30.6	90	28.0	1	3	90	0.00	29.747 
09:05	30.9	30.9	30.9	89	28.0	1	3	90	0.00	29.747 
09:10	31.2	31.2	31.2	89	28.3	0	2	90	0.00	29.747 
09:15	31.5	31.5	31.5	88	28.4	1	3	90	0.00	29.742 
09:20	31.8	31.8	31.8	88	28.7	1	3	90	0.00	29.742 
09:25	32.1	32.1	32.1	87	28.7	1	4	90	0.00	29.742 
09:30	32.4	32.4	32.4	87	29.0	1	3	90	0.00	29.734 
09:35	32.7	32.7	32.7	86	29.0	1	4	90	0.00	29.734 
09:40	32.8	32.8	32.8	86	29.1	0	2	90	0.00	29.734 
09:45	33.1	33.1	33.1	86	29.4	0	2	90	0.00	29.738 
09:50	33.2	33.2	33.2	86	29.5	0	2	90	0.00	29.738 
09:55	33.4	33.4	33.4	86	29.7	0	1	90	0.00	29.738 
10:00	33.5	33.5	33.5	86	29.8	0	1	90	0.00	29.728 
10:05	33.7	33.7	33.7	85	29.7	0	2	90	0.00	29.728 
10:10	33.7	33.7	33.7	85	29.7	1	3	90	0.00	29.728 
10:15	33.8	33.8	33.8	84	29.5	1	4	90	0.00	29.725 
10:20	34.0	34.0	34.0	84	29.7	1	3	90	0.00	29.725 
10:25	34.1	34.1	34.1	84	29.8	1	3	90	0.00	29.725 
10:30	34.3	34.3	34.3	84	30.0	0	2	90	0.00	29.718 
10:35	34.4	34.4	34.4	84	30.1	0	3	90	0.00	29.718 
10:40	34.7	34.7	34.7	84	30.4	2	4	90	0.00	29.718 
10:45	34.9	34.9	34.9	83	30.3	2	5	90	0.00	29.707 
10:50	35.0	35.0	35.0	83	30.4	2	4	90	0.00	29.707 
10:55	35.3	35.3	35.3	82	30.4	2	5	90	0.00	29.707 
11:00	35.6	35.6	35.6	82	30.7	1	4	90	0.00	29.703 
11:05	35.9	35.9	35.9	82	31.0	1	5	90	0.00	29.703 
11:10	36.2	36.2	36.2	81	30.9	1	3	90	0.00	29.703 
11:15	36.5	36.5	36.5	82	31.5	1	4	90	0.00	29.692 
11:20	36.6	36.6	36.6	81	31.3	1	3	90	0.00	29.692 
11:25	36.6	36.6	36.6	81	31.3	1	4	90	0.00	29.692 
11:30	36.8	36.8	36.8	81	31.5	1	3	45	0.00	29.681 
11:35	36.9	36.9	36.9	81	31.6	1	5	68	0.00	29.681 
11:40	37.0	37.0	37.0	80	31.4	1	3	68	0.00	29.681 
11:45	37.3	37.3	37.3	80	31.7	1	4	112	0.00	29.671 
11:50	37.5	37.5	37.5	79	31.6	2	5	90	0.00	29.671 
11:55	37.6	37.6	37.6	79	31.7	1	5	112	0.00	29.671 
12:00	37.9	37.9	37.9	78	31.7	2	6	90	0.00	29.663 
12:05	37.9	37.9	37.9	78	31.7	3	7	112	0.00	29.663 
12:10	37.9	34.9	37.9	77	31.3	4	7	112	0.00	29.663 
12:15	37.9	37.9	37.9	78	31.7	3	10	112	0.00	29.659 
12:20	38.2	38.2	38.2	77	31.6	3	5	90	0.00	29.659 
12:25	38.5	38.5	38.5	78	32.2	1	4	90	0.00	29.659 
12:30	38.8	38.8	38.8	76	31.9	3	7	90	0.00	29.652 
12:35	38.9	38.9	38.9	77	32.3	2	6	90	0.00	29.652 
12:40	39.1	39.1	39.1	77	32.5	3	10	90	0.00	29.652 
12:45	39.2	39.2	39.2	77	32.6	1	5	112	0.00	29.636 
12:50	39.5	39.5	39.5	77	32.9	1	6	112	0.00	29.636 
12:55	39.6	39.6	39.6	76	32.7	2	7	68	0.00	29.636 
13:00	39.9	39.9	39.9	77	33.3	1	4	90	0.00	29.622 
13:05	40.2	40.2	40.2	76	33.3	3	9	90	0.00	29.622 
13:10	40.3	40.3	40.3	75	33.0	2	7	90	0.00	29.622 
13:15	40.3	40.3	40.3	75	33.0	2	7	112	0.00	29.608 
13:20	40.5	40.5	40.5	75	33.2	2	5	112	0.00	29.608 
13:25	40.6	40.6	40.6	75	33.3	2	8	112	0.00	29.608 
13:30	40.8	40.8	40.8	74	33.2	1	7	112	0.00	29.590 
13:35	40.8	40.8	40.8	76	33.8	3	10	112	0.00	29.590 
13:40	40.8	40.8	40.8	76	33.8	2	6	90	0.00	29.590 
13:45	40.9	40.9	40.9	76	33.9	1	6	112	0.00	29.575 
13:50	41.1	41.1	41.1	76	34.1	2	6	112	0.00	29.575 
13:55	41.1	41.1	41.1	77	34.4	1	5	90	0.00	29.575 
14:00	41.2	41.2	41.2	77	34.5	2	5	90	0.00	29.563 
14:05	41.2	41.2	41.2	78	34.9	1	4	90	0.00	29.563 
14:10	41.2	41.2	41.2	78	34.9	1	5	90	0.00	29.563 
14:15	41.3	41.3	41.3	78	35.0	2	5	112	0.00	29.551 
14:20	41.5	41.5	41.5	78	35.2	2	7	68	0.00	29.551 
14:25	41.5	41.5	41.5	79	35.5	2	6	112	0.00	29.551 
14:30	41.5	41.5	41.5	79	35.5	2	6	112	0.00	29.546 
14:35	41.3	41.3	41.3	80	35.6	3	6	112	0.00	29.546 
14:40	41.3	41.3	41.3	81	35.9	1	4	112	0.00	29.546 
14:45	41.3	41.3	41.3	81	35.9	2	5	90	0.00	29.545 
14:50	41.3	41.3	41.3	82	36.2	3	5	112	0.00	29.545 
14:55	41.2	41.2	41.2	83	36.4	2	6	90	0.01	29.545 
15:00	41.2	41.2	41.2	84	36.7	2	5	90	0.00	29.544 
15:05	41.2	41.2	41.2	84	36.7	1	4	68	0.00	29.544 
15:10	41.1	41.1	41.1	85	36.9	2	4	135	0.00	29.544 
15:15	41.1	41.1	41.1	86	37.2	1	3	90	0.00	29.544 
15:20	41.1	41.1	41.1	86	37.2	1	3	90	0.01	29.544 
15:25	41.1	41.1	41.1	87	37.5	1	4	68	0.00	29.544 
15:30	41.1	41.1	41.1	87	37.5	0	3	112	0.00	29.539 
15:35	40.9	40.9	40.9	88	37.6	0	2	112	0.01	29.539 
15:40	40.9	40.9	40.9	88	37.6	0	2	0	0.00	29.539 
15:45	40.8	40.8	40.8	88	37.5	1	4	0	0.00	29.536 
15:50	40.8	40.8	40.8	88	37.5	1	3	90	0.00	29.536 
15:55	40.6	40.6	40.6	88	37.3	1	4	112	0.00	29.536 
16:00	40.6	40.6	40.6	88	37.3	0	3	112	0.01	29.535 
16:05	40.6	40.6	40.6	88	37.3	0	4	112	0.00	29.535 
16:10	40.5	40.5	40.5	88	37.2	2	6	112	0.01	29.535 
16:15	40.5	40.5	40.5	88	37.2	2	7	90	0.00	29.532 
16:20	40.3	40.3	40.3	88	37.0	2	7	90	0.01	29.532 
16:25	40.3	40.3	40.3	88	37.0	2	5	90	0.00	29.532 
16:30	40.2	40.2	40.2	88	36.9	1	7	112	0.00	29.529 
16:35	40.2	40.2	40.2	88	36.9	2	5	112	0.01	29.529 
16:40	40.2	40.2	40.2	89	37.2	2	6	112	0.00	29.529 
16:45	40.2	40.2	40.2	89	37.2	2	5	90	0.01	29.530 
16:50	40.2	40.2	40.2	89	37.2	1	5	90	0.00	29.530 
16:55	40.2	40.2	40.2	89	37.2	0	2	22	0.01	29.530 
17:00	40.1	40.1	40.1	90	37.4	1	4	45	0.00	29.527 
17:05	40.1	40.1	40.1	90	37.4	1	3	90	0.01	29.527 
17:10	40.1	40.1	40.1	90	37.4	1	4	112	0.00	29.527 
17:15	40.1	40.1	40.1	90	37.4	1	4	112	0.00	29.523 
17:20	40.1	40.1	40.1	90	37.4	1	5	45	0.00	29.523 
17:25	39.9	39.9	39.9	91	37.5	1	3	45	0.01	29.523 
17:30	39.9	39.9	39.9	91	37.5	1	3	90	0.00	29.525 
17:35	39.9	39.9	39.9	91	37.5	1	3	90	0.00	29.525 
17:40	39.8	39.8	39.8	91	37.4	1	4	22	0.00	29.525 
17:45	39.8	39.8	39.8	91	37.4	1	3	68	0.00	29.523 
17:50	39.6	39.6	39.6	91	37.2	1	3	45	0.01	29.523 
17:55	39.6	39.6	39.6	91	37.2	1	5	90	0.00	29.523 
18:00	39.6	39.6	39.6	91	37.2	1	4	45	0.00	29.518 
18:05	39.5	39.5	39.5	92	37.4	1	4	112	0.00	29.518 
18:10	39.5	39.5	39.5	92	37.4	1	3	45	0.00	29.518 
18:15	39.3	39.3	39.3	92	37.2	0	3	135	0.00	29.522 
18:20	39.2	39.2	39.2	92	37.1	1	5	68	0.00	29.522 
18:25	39.2	39.2	39.2	92	37.1	1	4	90	0.00	29.522 
18:30	39.1	39.1	39.1	92	37.0	1	3	45	0.00	29.514 
18:35	38.9	38.9	38.9	92	36.8	1	4	68	0.01	29.514 
18:40	38.8	38.8	38.8	92	36.7	2	5	68	0.00	29.514 
18:45	38.5	38.5	38.5	92	36.4	2	7	22	0.00	29.513 
18:50	38.5	38.5	38.5	92	36.4	2	6	112	0.00	29.513 
18:55	38.3	38.3	38.3	93	36.5	1	4	158	0.00	29.513 
19:00	38.3	38.3	38.3	93	36.5	2	5	68	0.00	29.511 
19:05	38.2	38.2	38.2	93	36.4	1	4	112	0.00	29.511 
19:10	38.2	38.2	38.2	93	36.4	1	3	22	0.00	29.511 
19:15	38.0	38.0	38.0	93	36.2	1	5	112	0.00	29.504 
19:20	37.9	37.9	37.9	93	36.1	1	4	112	0.01	29.504 
19:25	37.9	37.9	37.9	93	36.1	2	4	112	0.00	29.504 
19:30	37.8	37.8	37.8	93	36.0	2	6	112	0.00	29.502 
19:35	37.8	37.8	37.8	93	36.0	1	5	68	0.00	29.502 
19:40	37.6	37.6	37.6	93	35.8	2	5	112	0.00	29.502 
19:45	37.6	37.6	37.6	94	36.0	1	5	90	0.00	29.502 
19:50	37.6	37.6	37.6	94	36.0	2	10	90	0.01	29.502 
19:55	37.5	37.5	37.5	94	35.9	2	6	112	0.00	29.502 
20:00	37.5	37.5	37.5	94	35.9	1	4	45	0.00	29.499 
20:05	37.5	37.5	37.5	94	35.9	1	5	90	0.00	29.499 
20:10	37.5	37.5	37.5	94	35.9	1	4	90	0.00	29.499 
20:15	37.5	37.5	37.5	94	35.9	2	5	90	0.00	29.497 
20:20	37.5	37.5	37.5	94	35.9	2	7	112	0.00	29.497 
20:25	37.5	37.5	37.5	94	35.9	2	7	90	0.00	29.497 
20:30	37.5	37.5	37.5	94	35.9	1	4	45	0.00	29.498 
20:35	37.5	37.5	37.5	94	35.9	2	5	112	0.00	29.498 
20:40	37.3	37.3	37.3	94	35.7	2	7	112	0.00	29.498 
20:45	37.3	37.3	37.3	94	35.7	2	5	90	0.00	29.495 
20:50	37.3	37.3	37.3	94	35.7	2	6	112	0.00	29.495 
20:55	37.3	37.3	37.3	94	35.7	3	9	112	0.00	29.495 
21:00	37.2	37.2	37.2	94	35.6	1	4	112	0.00	29.482 
21:05	37.2	37.2	37.2	94	35.6	1	6	90	0.00	29.482 
21:10	37.2	37.2	37.2	94	35.6	1	5	112	0.00	29.482 
21:15	37.2	37.2	37.2	94	35.6	1	4	112	0.00	29.477 
21:20	37.2	37.2	37.2	94	35.6	1	4	45	0.00	29.477 
21:25	37.2	37.2	37.2	94	35.6	1	6	112	0.00	29.477 
21:30	37.2	37.2	37.2	94	35.6	1	4	112	0.00	29.477 
21:35	37.2	37.2	37.2	94	35.6	1	4	112	0.00	29.477 
21:40	37.2	37.2	37.2	94	35.6	1	4	112	0.01	29.477 
21:45	37.2	37.2	37.2	94	35.6	1	4	90	0.00	29.468 
21:50	37.2	37.2	37.2	95	35.9	1	4	68	0.00	29.468 
21:55	37.3	37.3	37.3	95	36.0	1	3	68	0.00	29.468 
22:00	37.3	37.3	37.3	95	36.0	1	3	90	0.00	29.465 
22:05	37.3	37.3	37.3	95	36.0	1	3	90	0.00	29.465 
22:10	37.3	37.3	37.3	95	36.0	0	2	90	0.00	29.465 
22:15	37.3	37.3	37.3	95	36.0	1	5	112	0.00	29.454 
22:20	37.5	37.5	37.5	95	36.2	1	4	45	0.00	29.454 
22:25	37.5	37.5	37.5	95	36.2	1	5	112	0.00	29.454 
22:30	37.5	37.5	37.5	95	36.2	1	3	112	0.00	29.448 
22:35	37.5	37.5	37.5	95	36.2	0	2	135	0.00	29.448 
22:40	37.5	37.5	37.5	95	36.2	1	4	112	0.00	29.448 
22:45	37.6	37.6	37.6	95	36.3	0	3	112	0.00	29.445 
22:50	37.6	37.6	37.6	95	36.3	0	2	22	0.00	29.445 
22:55	37.6	37.6	37.6	95	36.3	0	3	22	0.00	29.445 
23:00	37.6	37.6	37.6	95	36.3	0	2	22	0.00	29.445 
23:05	37.6	37.6	37.6	95	36.3	0	1	22	0.00	29.445 
23:10	37.8	37.8	37.8	95	36.5	0	2	22	0.00	29.445 
23:15	37.8	37.8	37.8	95	36.5	0	2	22	0.00	29.444 
23:20	37.8	37.8	37.8	95	36.5	0	2	45	0.00	29.444 
23:25	37.8	37.8	37.8	95	36.5	0	2	45	0.00	29.444 
23:30	37.8	37.8	37.8	95	36.5	0	2	45	0.00	29.444 
23:35	37.8	37.8	37.8	95	36.5	0	1	45	0.00	29.444 
23:40	37.8	37.8	37.8	95	36.5	0	1	45	0.00	29.444 
23:45	37.8	37.8	37.8	95	36.5	0	1	45	0.00	29.444 
23:50	37.8	37.8	37.8	95	36.5	0	2	45	0.00	29.444 
23:55	37.8	37.8	37.8	95	36.5	0	1	45	0.00	29.444 

CoCoRaHS
IN-AL-39
A2 Web Hosting
Creative Commons License
GoDaddy
search engine by freefind advanced

loaded 2018-11-17 00:29:36 • last modified 2010-11-18 10:43:29
Privacy PolicyDisclaimer
• wx.awcolley.com is powered by PmWiki v.2002016 •
• all content (unless otherwise noted) © 2018 A W Colley